Cisco Butte, California Weather observations

Data are for observation ending at time listed.
 Day   Time    Ave.   Ave.  Ave.  Vector   Max.   Stn.    Total    Solar   Ave.   Snow 
  of    of     Air    Rel.  Wind   Wind    Wind   Baro.  Precip.   Rad.    Soil   Depth
Year   Day     Temp.  Hum.  Speed  Dir.    Gust   Pres.                    Temp.       
2014   (PST)    F      %     mph   deg.    mph     mb.     in.     W/m2     F      in. 
---------------------------------------------------------------------------------------  
 296   10:50   50.6    43    5.3   245     12.1   826.0    0.00     169    999.0  159.2
 296   11:00   51.0    42    5.8   262     14.8   826.0    0.00     199    999.0  159.2
 296   11:10   51.2    42    7.3   264     14.5   826.0    0.00     228    999.0  159.3
 296   11:20   51.8    42    8.6   265     16.1   826.0    0.00     225    999.0  159.2
 296   11:30   51.9    42    7.1   264     14.2   826.0    0.00     214    999.0  159.1
 296   11:40   51.8    43    9.5   270     17.3   826.0    0.00     208    999.0  159.0
 296   11:50   51.5    44    9.4   268     16.2   826.0    0.00     212    999.0  158.9
 296   12:00   51.5    44    9.6   270     15.8   826.0    0.00     216    999.0  159.0
 296   12:10   51.3    44    9.3   272     14.7   826.0    0.00     166    999.0  159.1
 296   12:20   51.1    45   10.1   276     15.3   826.0    0.00     172    999.0  159.1
 296   12:30   50.8    46   10.0   266     18.8   826.0    0.00     144    999.0  158.9
 296   12:40   50.8    46    8.1   265     15.3   825.0    0.00     166    999.0  158.9
 296   12:50   51.3    46    6.3   262     12.3   825.0    0.00     150    999.0  158.9
 296   13:00   51.5    46    3.4   248      7.8   825.0    0.00     174    999.0  159.0
 296   13:10   52.0    44    4.7   228     11.2   825.0    0.00     192    999.0  159.3
 296   13:20   51.5    44    6.5   270     12.9   825.0    0.00     165    999.0  159.1
 296   13:30   51.5    44    6.2   248     13.2   825.0    0.00     164    999.0  159.1
 296   13:40   51.6    44    7.1   266     13.6   825.0    0.00     181    999.0  159.2
 296   13:50   51.6    44    6.8   250     11.6   825.0    0.00     109    999.0  159.3
 296   14:00   51.0    45    7.1   272     14.1   825.0    0.00     117    999.0  159.2
 296   14:10   51.0    46    6.4   270     14.0   825.0    0.00     106    999.0  159.0
 296   14:20   51.0    45    6.5   252     12.8   825.0    0.00      88    999.0  159.0
 296   14:30   50.6    45    5.7   245     14.2   825.0    0.00      70    999.0  159.1
 296   14:40   50.1    46    8.2   259     18.1   825.0    0.00      77    999.0  158.8
 296   14:50   50.0    45    6.2   244     15.4   825.0    0.00      77    999.0  158.9
 296   15:00   49.9    45    7.8   258     15.5   825.0    0.00      67    999.0  158.8
 296   15:10   49.8    46    8.1   264     17.0   825.0    0.00      76    999.0  158.8
 296   15:20   49.9    45    5.7   260     14.0   825.0    0.00      74    999.0  158.8
 296   15:30   50.0    44    5.2   263     10.9   825.0    0.00      79    999.0  158.9
 296   15:40   50.0    45    5.4   238     17.5   825.0    0.00      70    999.0  159.0
 296   15:50   50.0    45    5.1   261     11.0   825.0    0.00      70    999.0  159.0
 296   16:00   49.9    45    4.6   228     10.9   825.0    0.00      55    999.0  158.8
 296   16:10   49.7    46    4.2   262      9.1   825.0    0.00      43    999.0  158.8
 296   16:20   49.4    45    7.3   265     13.4   825.0    0.00      31    999.0  158.8
 296   16:30   49.3    45    5.3   248     15.3   825.0    0.00      33    999.0  158.8
 296   16:40   49.1    45    2.6   224      9.5   824.0    0.00      23    999.0  158.8
 296   16:50   48.7    47    3.7   208     13.4   824.0    0.00      16    999.0  158.0
 296   17:00   48.5    47    2.7   240      7.9   824.0    0.00      13    999.0  157.7
 296   17:10   48.4    47    3.2   238     11.3   824.0    0.00       4    999.0  157.9
 296   17:20   48.2    48    2.7   150      9.3   824.0    0.00       1    999.0  157.8
 296   17:30   48.1    48    2.9   207      8.4   824.0    0.00       0    999.0   77.9
 296   17:40   48.0    47    2.6   219      9.3   824.0    0.00       0    999.0   32.5
 296   17:50   48.1    46    3.4   160      9.1   824.0    0.00       0    999.0  157.7
 296   18:00   48.0    46    2.3   158      7.5   824.0    0.00       0    999.0  125.4
 296   18:10   48.1    46    4.4   180     10.9   824.0    0.00       0    999.0  127.0
 296   18:20   48.1    46    4.3   181     12.1   824.0    0.00       0    999.0  142.0
 296   18:30   48.2    45    5.3   192     13.0   824.0    0.00       0    999.0  157.8
 296   18:40   48.4    43    6.3   195     14.1   824.0    0.00       0    999.0  157.8
 296   18:50   48.4    43    5.6   184     12.5   824.0    0.00       0    999.0  157.9
 296   19:00   48.2    44    4.6   193     11.1   824.0    0.00       0    999.0  157.9
 296   19:10   48.2    44    4.9   183     12.4   824.0    0.00       0    999.0  157.6
 296   19:20   48.3    44    4.3   173     14.4   824.0    0.00       0    999.0  157.7
 296   19:30   47.9    45    3.1   195      7.3   824.0    0.00       0    999.0  158.0
 296   19:40   47.6    45    2.9   217      7.6   824.0    0.00       0    999.0  157.9
 296   19:50   47.6    45    4.0   186     10.7   824.0    0.00       0    999.0  158.2
 296   20:00   47.5    46    3.3   178     10.1   824.0    0.00       0    999.0  157.3
 296   20:10   47.6    47    4.7   166     11.0   824.0    0.00       0    999.0    0.2
 296   20:20   47.3    48    3.8   164      9.3   824.0    0.00       0    999.0    0.1
 296   20:30   47.4    49    4.5   157     11.0   824.0    0.00       0    999.0    0.1
 296   20:40   47.6    47    4.0   150     13.3   825.0    0.00       0    999.0    0.1
 296   20:50   47.3    47    3.3   169     17.0   825.0    0.00       0    999.0    0.1
 296   21:00   47.3    47    3.9   159     12.6   825.0    0.00       0    999.0    0.1
 296   21:10   47.4    47    3.9   164      9.3   825.0    0.00       0    999.0    0.2
 296   21:20   47.9    46    6.5   168     14.0   825.0    0.00       0    999.0    0.1
 296   21:30   47.8    48    5.9   142     16.3   825.0    0.00       0    999.0    0.1
 296   21:40   47.8    48    6.6   161     17.4   825.0    0.00       0    999.0    0.1
 296   21:50   48.1    47    8.5   165     17.0   825.0    0.00       0    999.0    0.1
 296   22:00   48.2    46    6.7   164     12.7   825.0    0.00       0    999.0    0.8
 296   22:10   48.3    45    8.7   171     23.9   825.0    0.00       0    999.0  142.3
 296   22:20   48.7    43    8.9   166     19.9   825.0    0.00       0    999.0  159.0
 296   22:30   48.8    42    6.7   176     15.6   825.0    0.00       0    999.0  159.0
 296   22:40   49.0    41    7.6   196     19.8   825.0    0.00       0    999.0  159.0
 296   22:50   49.3    40    7.5   207     16.9   825.0    0.00       0    999.0  159.1
 296   23:00   49.2    41    7.5   189     21.3   825.0    0.00       0    999.0  159.1
 296   23:10   49.1    41    7.2   207     18.0   825.0    0.00       0    999.0  159.1
 296   23:20   48.9    42    7.9   198     20.0   825.0    0.00       0    999.0  159.2
 296   23:30   48.9    42    7.5   194     19.1   825.0    0.00       0    999.0  159.2
 296   23:40   48.9    41    8.1   192     17.5   825.0    0.00       0    999.0  159.2
 296   23:50   49.0    41    5.5   193     19.6   825.0    0.00       0    999.0  159.2
 297    0:00   48.9    41    7.7   185     19.9   825.0    0.00       0    999.0  159.1
 297    0:10   49.0    40    7.0   185     16.9   825.0    0.00       0    999.0  159.1
 297    0:20   49.2    39    8.1   196     20.3   825.0    0.00       0    999.0  159.0
 297    0:30   49.2    39    6.8   201     17.8   825.0    0.00       0    999.0  159.0
 297    0:40   49.4    39    7.2   192     18.5   825.0    0.00       0    999.0  159.0
 297    0:50   49.4    38    5.6   194     15.1   825.0    0.00       0    999.0  159.1
 297    1:00   49.4    38    6.4   193     15.8   825.0    0.00       0    999.0  159.1
 297    1:10   49.7    37    7.6   186     20.0   825.0    0.00       0    999.0  159.2
 297    1:20   49.9    36    8.2   180     17.8   825.0    0.00       0    999.0  159.2
 297    1:30   50.0    37    7.2   194     16.0   824.0    0.00       0    999.0  159.2
 297    1:40   50.0    38    6.3   208     17.3   824.0    0.00       0    999.0  159.2
 297    1:50   49.7    39    5.2   208     12.9   824.0    0.00       0    999.0  159.1
 297    2:00   49.7    39    5.7   207     18.9   824.0    0.00       0    999.0  158.9
 297    2:10   49.7    39    6.0   216     16.3   824.0    0.00       0    999.0  159.0
 297    2:20   49.3    39    4.9   207     10.4   824.0    0.00       0    999.0  159.1
 297    2:30   49.3    39    5.5   209     16.6   824.0    0.00       0    999.0  158.9
 297    2:40   49.4    39    6.1   202     12.9   824.0    0.00       0    999.0  159.0
 297    2:50   49.3    39    5.9   222     18.0   824.0    0.00       0    999.0  159.0
 297    3:00   49.5    39    6.7   189     17.1   824.0    0.00       0    999.0  158.9
 297    3:10   49.5    39    6.0   201     15.6   824.0    0.00       0    999.0  158.9
 297    3:20   49.4    40    6.5   192     15.8   824.0    0.00       0    999.0  158.9
 297    3:30   49.6    40    6.0   206     14.3   824.0    0.00       0    999.0  158.9
 297    3:40   49.6    41    7.9   193     17.3   824.0    0.00       0    999.0  158.9
 297    3:50   49.4    41    6.2   206     13.5   824.0    0.00       0    999.0  159.1
 297    4:00   49.5    40    7.3   185     20.2   824.0    0.00       0    999.0  159.0
 297    4:10   49.3    40    5.7   190     16.3   824.0    0.00       0    999.0  159.0
 297    4:20   49.4    38    7.0   190     17.8   824.0    0.00       0    999.0  159.0
 297    4:30   49.5    37    6.9   184     14.7   824.0    0.00       0    999.0  159.1
 297    4:40   49.6    36    6.7   182     14.8   824.0    0.00       0    999.0  159.2
 297    4:50   49.8    35    7.2   189     22.7   824.0    0.00       0    999.0  159.2
 297    5:00   49.5    35    6.3   183     20.8   824.0    0.00       0    999.0  159.2
 297    5:10   49.6    35    7.7   193     17.6   824.0    0.00       0    999.0  159.1
 297    5:20   49.8    34    6.0   200     16.3   824.0    0.00       0    999.0  159.1
 297    5:30   49.8    34    7.8   183     18.9   824.0    0.00       0    999.0  159.0
 297    5:40   49.9    34    6.2   197     14.8   824.0    0.00       0    999.0  159.0
 297    5:50   50.1    34    8.7   173     18.9   824.0    0.00       0    999.0  158.9
 297    6:00   49.9    34    6.2   181     13.5   824.0    0.00       0    999.0  158.8
 297    6:10   49.9    35    7.7   167     23.0   824.0    0.00       0    999.0  158.9
 297    6:20   50.0    35    8.9   168     18.9   824.0    0.00       1    999.0  159.1
 297    6:30   49.9    36    8.7   165     15.1   824.0    0.00       3    999.0  159.2
 297    6:40   49.7    36    8.4   168     18.3   825.0    0.00       8    999.0  159.2
 297    6:50   50.0    36    7.5   154     14.0   825.0    0.00      27    999.0  159.2
 297    7:00   50.5    36    6.4   164     18.3   825.0    0.00      39    999.0  159.1
 297    7:10   50.8    35    5.8   152     13.8   825.0    0.00      53    999.0  159.1
 297    7:20   50.9    34    9.6   142     17.2   825.0    0.00      68    999.0  158.8
 297    7:30   51.2    34    9.0   148     15.1   825.0    0.00      84    999.0  158.8
 297    7:40   51.7    33    8.9   159     20.2   825.0    0.00     102    999.0  158.8
 297    7:50   52.0    33    8.3   154     19.7   825.0    0.00     120    999.0  158.5
 297    8:00   52.4    33    9.6   162     20.4   825.0    0.00     140    999.0  158.3
 297    8:10   52.7    33    9.7   168     21.9   825.0    0.00     159    999.0  158.2
 297    8:20   53.0    32    9.2   161     18.9   825.0    0.00     179    999.0  158.2
 297    8:30   53.4    32    9.7   166     18.0   825.0    0.00     199    999.0  158.2
 297    8:40   53.9    31    7.9   166     16.1   825.0    0.00     218    999.0  158.2
 297    8:50   54.4    30    7.6   159     19.4   825.0    0.00     240    999.0  157.7
 297    9:00   54.3    30   10.2   165     20.8   825.0    0.00     262    999.0  157.6
 297    9:10   54.8    29    8.7   169     24.6   825.0    0.00     280    999.0  157.4
 297    9:20   55.1    29    8.9   153     21.0   825.0    0.00     298    999.0  157.3
 297    9:30   55.6    29    7.7   156     19.0   825.0    0.00     314    999.0  157.3
 297    9:40   56.2    29    8.2   176     21.1   825.0    0.00     329    999.0  157.2
 297    9:50   56.4    29    7.3   161     19.1   825.0    0.00     344    999.0  157.0
 297   10:00   56.6    28    7.8   189     23.2   825.0    0.00     357    999.0  157.0
 297   10:10   57.3    28    6.9   184     21.3   825.0    0.00     370    999.0  157.0
 297   10:20   57.4    28    7.7   185     18.4   825.0    0.00     381    999.0  156.8
 297   10:30   57.8    28    9.5   214     19.1   825.0    0.00     391    999.0  157.0
 297   10:40   58.5    28    7.7   209     18.8   825.0    0.00     401    999.0  157.0

Return to Cisco Butte graphs page.


Western Regional Climate Center,wrcc@dri.edu